Time;durP1;ratioP1;P1;durP2;ratioP2;P2;SDS_P1;SDS_P2;PMS_P1;PMS_P2;Temp;Humidity;BMP_temperature;BMP_pressure;BME280_temperature;BME280_humidity;BME280_pressure;Samples;Min_cycle;Max_cycle;Signal;HPM_P1;HPM_P2
2022/09/28 00:01:34;;;;;;;0.77;0.45;;;;;;;-140.72;100.00;53054.44;5013010;28;20096;-70
2022/09/28 00:04:00;;;;;;;1.70;0.60;;;;;;;-140.72;100.00;53005.72;5013736;28;20029;-70
2022/09/28 00:06:27;;;;;;;1.02;0.50;;;;;;;-140.72;100.00;53034.16;5014854;28;20100;-69
2022/09/28 00:08:53;;;;;;;3.50;1.15;;;;;;;-140.72;100.00;53028.06;5014528;28;20030;-69
2022/09/28 00:11:21;;;;;;;1.35;0.80;;;;;;;-140.72;100.00;53021.97;5016659;28;20022;-69
2022/09/28 00:13:52;;;;;;;0.77;0.47;;;;;;;-140.72;100.00;53032.13;5016815;28;20052;-70
2022/09/28 00:16:21;;;;;;;2.03;0.82;;;;;;;-140.72;100.00;53032.13;4999408;28;20033;-69
2022/09/28 00:18:47;;;;;;;1.67;0.63;;;;;;;-140.72;100.00;53048.34;5016889;28;20030;-69
2022/09/28 00:21:16;;;;;;;2.85;0.57;;;;;;;-140.72;100.00;52999.66;4996822;28;20026;-70
2022/09/28 00:26:27;;;;;;;4.07;1.17;;;;;;;-140.72;100.00;53048.34;5016259;28;20088;-70
2022/09/28 00:28:54;;;;;;;3.90;0.60;;;;;;;-140.72;100.00;53032.13;5016522;28;20051;-69
2022/09/28 00:31:21;;;;;;;1.27;0.63;;;;;;;-140.72;100.00;53068.66;5016716;28;20477;-70
2022/09/28 00:33:50;;;;;;;2.08;1.02;;;;;;;-140.72;100.00;52999.66;4999083;28;20374;-69
2022/09/28 00:36:15;;;;;;;1.10;0.70;;;;;;;-140.72;100.00;53013.84;5000912;28;20113;-70
2022/09/28 00:38:41;;;;;;;1.02;0.77;;;;;;;-140.72;100.00;53015.88;5016596;28;20038;-69
2022/09/28 00:41:10;;;;;;;1.02;0.93;;;;;;;-140.72;100.00;53007.75;5016477;28;20046;-70
2022/09/28 00:43:36;;;;;;;3.42;0.80;;;;;;;-140.72;100.00;53021.97;5018036;28;20370;-69
2022/09/28 00:46:07;;;;;;;1.58;1.02;;;;;;;-140.72;100.00;53052.41;5016188;28;20033;-70
2022/09/28 00:48:39;;;;;;;3.45;0.95;;;;;;;-140.72;100.00;53007.75;5020634;28;20033;-70
2022/09/28 00:51:11;;;;;;;1.75;0.95;;;;;;;-140.72;100.00;53036.16;5015946;28;20018;-70
2022/09/28 00:53:39;;;;;;;1.35;0.82;;;;;;;-140.72;100.00;53040.22;5014856;28;20548;-70
2022/09/28 00:56:10;;;;;;;3.83;1.45;;;;;;;-140.72;100.00;53030.09;5016099;28;20045;-69
2022/09/28 00:58:41;;;;;;;1.58;1.05;;;;;;;-140.72;100.00;53038.19;5014057;28;20029;-69
2022/09/28 01:01:07;;;;;;;1.75;1.00;;;;;;;-140.72;100.00;53013.84;4998239;28;20466;-69
2022/09/28 01:03:32;;;;;;;3.10;0.73;;;;;;;-140.72;100.00;53015.88;5016072;28;20036;-69
2022/09/28 01:06:01;;;;;;;3.33;1.38;;;;;;;-140.72;100.00;52983.41;5015829;28;20034;-69
2022/09/28 01:08:29;;;;;;;5.75;1.75;;;;;;;-140.72;100.00;53007.75;5018336;28;20030;-69
2022/09/28 01:10:54;;;;;;;2.13;1.50;;;;;;;-140.72;100.00;53056.47;5015891;28;20022;-69
2022/09/28 01:13:23;;;;;;;1.38;0.90;;;;;;;-140.72;100.00;53056.47;4998312;28;20095;-69
2022/09/28 01:16:13;;;;;;;3.55;1.27;;;;;;;-140.72;100.00;53024.00;5015811;28;20022;-69
2022/09/28 01:18:57;;;;;;;4.20;1.08;;;;;;;-140.72;100.00;53003.69;4991378;28;20039;-69
2022/09/28 01:21:24;;;;;;;2.10;1.20;;;;;;;-140.72;100.00;52993.56;5014602;28;20034;-69
2022/09/28 01:23:55;;;;;;;2.17;1.50;;;;;;;-140.72;100.00;52995.59;5015424;28;20529;-69
2022/09/28 01:26:39;;;;;;;2.25;1.00;;;;;;;-140.72;100.00;53013.84;5015488;28;20045;-69
2022/09/28 01:29:33;;;;;;;2.58;1.05;;;;;;;-140.72;100.00;52991.53;4997044;28;20389;-68
2022/09/28 01:32:31;;;;;;;2.42;1.20;;;;;;;-140.72;100.00;53011.81;5014019;28;20038;-69
2022/09/28 01:35:03;;;;;;;1.25;0.75;;;;;;;-140.72;100.00;53019.94;4996017;28;20022;-69
2022/09/28 01:37:44;;;;;;;1.13;0.50;;;;;;;-140.72;100.00;53064.59;5016555;28;20477;-69
2022/09/28 01:40:13;;;;;;;0.77;0.52;;;;;;;-140.72;100.00;53013.84;5015492;28;20026;-69
2022/09/28 01:42:54;;;;;;;0.40;0.30;;;;;;;-140.72;100.00;53007.75;5000202;28;20025;-69
2022/09/28 01:45:29;;;;;;;0.55;0.32;;;;;;;-140.72;100.00;53036.16;5014271;28;20493;-69
2022/09/28 01:48:11;;;;;;;0.68;0.43;;;;;;;-140.72;100.00;53024.00;5015354;28;20029;-69
2022/09/28 01:50:41;;;;;;;0.50;0.40;;;;;;;-140.72;100.00;53024.00;4992740;28;20053;-69
2022/09/28 01:53:11;;;;;;;;;;;;;;;-140.72;100.00;53003.69;4997698;28;20037;-70
2022/09/28 01:55:39;;;;;;;;;;;;;;;-140.72;100.00;52993.56;4997847;28;19917;-69
2022/09/28 01:58:17;;;;;;;0.75;0.43;;;;;;;-140.72;100.00;53040.22;5014564;28;19914;-70
2022/09/28 02:00:48;;;;;;;0.95;0.43;;;;;;;-140.72;100.00;52995.59;5013944;28;20044;-69
2022/09/28 02:03:18;;;;;;;0.88;0.50;;;;;;;-140.72;100.00;52999.66;5014425;28;20034;-69
2022/09/28 02:05:53;;;;;;;0.63;0.30;;;;;;;-140.72;100.00;52983.41;5015155;28;20084;-69
2022/09/28 02:08:36;;;;;;;0.38;0.30;;;;;;;-140.72;100.00;53015.88;4995585;28;20030;-70
2022/09/28 02:11:10;;;;;;;0.30;0.25;;;;;;;-140.72;100.00;53015.88;4996247;28;20075;-69
2022/09/28 02:13:39;;;;;;;2.38;0.38;;;;;;;-140.72;100.00;53056.47;5012781;28;20044;-70
2022/09/28 02:16:15;;;;;;;0.30;0.20;;;;;;;-140.72;100.00;53013.84;5011625;28;20119;-70
2022/09/28 02:18:42;;;;;;;1.17;0.40;;;;;;;-140.72;100.00;52985.44;4997023;28;20034;-70
2022/09/28 02:21:14;;;;;;;2.38;0.50;;;;;;;-140.72;100.00;52975.28;5014289;28;20030;-69
2022/09/28 02:24:04;;;;;;;0.63;0.40;;;;;;;-140.72;100.00;53032.13;5014834;28;20026;-69
2022/09/28 02:26:34;;;;;;;0.30;0.30;;;;;;;-140.72;100.00;53007.75;5003035;28;20045;-70
2022/09/28 02:28:59;;;;;;;1.02;0.40;;;;;;;-140.72;100.00;53030.09;4996991;28;20025;-71
2022/09/28 02:31:26;;;;;;;0.65;0.30;;;;;;;-140.72;100.00;52989.50;5013569;28;20481;-70
2022/09/28 02:33:53;;;;;;;1.40;0.30;;;;;;;-140.72;100.00;53015.88;5021965;22;20096;-69
2022/09/28 02:36:19;;;;;;;0.55;0.40;;;;;;;-140.72;100.00;53028.06;5008904;28;20061;-69
2022/09/28 02:38:45;;;;;;;0.40;0.20;;;;;;;-140.72;100.00;53007.75;4985073;28;20062;-69
2022/09/28 02:41:29;;;;;;;0.73;0.30;;;;;;;-140.72;100.00;53052.41;5002240;28;20109;-70
2022/09/28 02:44:16;;;;;;;0.25;0.10;;;;;;;-140.72;100.00;53005.72;5005691;28;20390;-69
2022/09/28 02:47:14;;;;;;;0.77;0.38;;;;;;;-140.72;100.00;53019.94;5003880;28;20108;-70
2022/09/28 02:50:11;;;;;;;1.63;0.43;;;;;;;-140.72;100.00;53060.53;4984309;28;20034;-69
2022/09/28 02:52:46;;;;;;;0.95;0.38;;;;;;;-140.72;100.00;53005.72;5008486;28;20027;-70
2022/09/28 02:55:17;;;;;;;0.38;0.20;;;;;;;-140.72;100.00;53003.69;4999597;28;20164;-70
2022/09/28 02:57:51;;;;;;;0.30;0.25;;;;;;;-140.72;100.00;53015.88;5006629;28;20056;-69
2022/09/28 03:00:19;;;;;;;0.30;0.30;;;;;;;-140.72;100.00;53009.78;5010122;28;20036;-70
2022/09/28 03:02:45;;;;;;;0.20;0.20;;;;;;;-140.72;100.00;53005.72;5000316;28;20033;-69
2022/09/28 03:05:18;;;;;;;2.22;0.52;;;;;;;-140.72;100.00;53030.09;5017511;28;20112;-70
2022/09/28 03:08:02;;;;;;;1.70;0.47;;;;;;;-140.72;100.00;53050.38;4999683;28;20025;-69
2022/09/28 03:10:48;;;;;;;0.20;0.13;;;;;;;-140.72;100.00;53007.75;4999346;28;20346;-69
2022/09/28 03:13:15;;;;;;;1.88;0.40;;;;;;;-140.72;100.00;52991.53;5002117;28;20041;-70
2022/09/28 03:15:43;;;;;;;1.00;0.40;;;;;;;-140.72;100.00;52999.66;4981600;28;20432;-69
2022/09/28 03:18:08;;;;;;;4.10;1.08;;;;;;;-140.72;100.00;53030.09;4988069;28;20053;-70
2022/09/28 03:20:34;;;;;;;0.73;0.30;;;;;;;-140.72;100.00;52989.50;4981641;28;20101;-69
2022/09/28 03:23:00;;;;;;;1.02;0.30;;;;;;;-140.72;100.00;53017.91;4985221;28;20112;-70
2022/09/28 03:25:26;;;;;;;0.22;0.10;;;;;;;-140.72;100.00;52963.13;5003293;28;20462;-69
2022/09/28 03:27:51;;;;;;;0.40;0.20;;;;;;;-140.72;100.00;53044.28;4985936;28;20022;-70
2022/09/28 03:30:17;;;;;;;0.82;0.20;;;;;;;-140.72;100.00;53001.66;4981556;28;20092;-70
2022/09/28 03:32:42;;;;;;;0.35;0.30;;;;;;;-140.72;100.00;53019.94;5004224;28;20026;-70
2022/09/28 03:35:08;;;;;;;1.33;0.40;;;;;;;-140.72;100.00;53011.81;4988752;28;20026;-70
2022/09/28 03:37:34;;;;;;;3.20;0.30;;;;;;;-140.72;100.00;52975.28;4992658;28;20037;-69
2022/09/28 03:40:00;;;;;;;0.82;0.30;;;;;;;-140.72;100.00;53015.88;4998859;28;20040;-70
2022/09/28 03:42:25;;;;;;;0.30;0.22;;;;;;;-140.72;100.00;53009.78;4989493;28;20349;-70
2022/09/28 03:44:51;;;;;;;0.52;0.30;;;;;;;-140.72;100.00;53009.78;5002612;28;20445;-70
2022/09/28 03:47:18;;;;;;;0.50;0.35;;;;;;;-140.72;100.00;53036.16;4983776;28;20026;-70
2022/09/28 03:49:44;;;;;;;0.40;0.30;;;;;;;-140.72;100.00;53007.75;4988272;28;20078;-70
2022/09/28 03:52:10;;;;;;;0.30;0.20;;;;;;;-140.72;100.00;53019.94;5007800;28;20362;-69
2022/09/28 03:54:35;;;;;;;0.82;0.30;;;;;;;-140.72;100.00;53021.97;4997767;28;20022;-70
2022/09/28 03:57:00;;;;;;;1.38;0.70;;;;;;;-140.72;100.00;52971.22;4979550;28;20034;-70
2022/09/28 03:59:26;;;;;;;0.40;0.30;;;;;;;-140.72;100.00;53009.78;4992563;28;20034;-70
2022/09/28 04:01:51;;;;;;;1.15;0.30;;;;;;;-140.72;100.00;53024.00;5003700;28;20022;-69
2022/09/28 04:04:17;;;;;;;0.40;0.38;;;;;;;-140.72;100.00;53021.97;5024342;28;20048;-69
2022/09/28 04:06:43;;;;;;;0.22;0.20;;;;;;;-140.72;100.00;53062.56;5003921;28;20106;-69
2022/09/28 04:09:08;;;;;;;0.43;0.30;;;;;;;-140.72;100.00;53032.13;5001168;28;20026;-69
2022/09/28 04:11:34;;;;;;;1.95;0.60;;;;;;;-140.72;100.00;52999.66;4999251;28;20081;-70
2022/09/28 04:13:59;;;;;;;1.95;0.82;;;;;;;-140.72;100.00;53009.78;4991605;28;20030;-71
2022/09/28 04:16:25;;;;;;;0.43;0.30;;;;;;;-140.72;100.00;53040.22;4998638;28;20030;-69
2022/09/28 04:18:51;;;;;;;0.43;0.40;;;;;;;-140.72;100.00;53015.88;4999240;28;20034;-70
2022/09/28 04:21:18;;;;;;;0.52;0.30;;;;;;;-140.72;100.00;53030.09;4987509;28;20033;-69
2022/09/28 04:23:44;;;;;;;0.32;0.30;;;;;;;-140.72;100.00;53011.81;4999743;28;20026;-69
2022/09/28 04:29:31;;;;;;;3.60;0.50;;;;;;;-140.72;100.00;53011.81;5009435;28;20076;-69
2022/09/28 04:32:00;;;;;;;0.88;0.60;;;;;;;-140.72;100.00;53026.03;5002584;28;20058;-70
2022/09/28 04:34:26;;;;;;;8.02;0.93;;;;;;;-140.72;100.00;52999.66;5011146;28;20092;-70
2022/09/28 04:36:51;;;;;;;0.80;0.40;;;;;;;-140.72;100.00;53038.19;4978508;28;20030;-70
2022/09/28 04:39:18;;;;;;;0.50;0.40;;;;;;;-140.72;100.00;53050.38;5022852;28;20542;-70
2022/09/28 04:41:46;;;;;;;1.17;0.50;;;;;;;-140.72;100.00;53070.69;5002329;28;20449;-70
2022/09/28 04:44:11;;;;;;;0.95;0.57;;;;;;;-140.72;100.00;53060.53;4992774;28;20108;-69
2022/09/28 04:46:36;;;;;;;0.63;0.40;;;;;;;-140.72;100.00;53060.53;5001107;28;20473;-70
2022/09/28 04:49:02;;;;;;;1.60;0.77;;;;;;;-140.72;100.00;53028.06;5015881;28;20537;-70
2022/09/28 04:51:30;;;;;;;1.75;0.68;;;;;;;-140.72;100.00;53054.44;5019535;28;20034;-72
2022/09/28 04:53:55;;;;;;;3.17;1.25;;;;;;;-140.72;100.00;53024.00;4986104;28;20048;-72
2022/09/28 04:56:21;;;;;;;2.33;1.00;;;;;;;-140.72;100.00;53017.91;4990227;28;20552;-69
2022/09/28 04:58:46;;;;;;;2.25;0.60;;;;;;;-140.72;100.00;53024.00;5003148;28;20057;-70
2022/09/28 05:01:16;;;;;;;1.30;0.60;;;;;;;-140.72;100.00;52999.66;5001513;28;20034;-70
2022/09/28 05:03:42;;;;;;;0.55;0.45;;;;;;;-140.72;100.00;53015.88;5002637;28;20026;-69
2022/09/28 05:06:08;;;;;;;1.02;0.90;;;;;;;-140.72;100.00;53028.06;5018862;28;20133;-70
2022/09/28 05:08:34;;;;;;;3.17;1.58;;;;;;;-140.72;100.00;53015.88;4992610;28;20041;-69
2022/09/28 05:11:03;;;;;;;7.75;1.40;;;;;;;-140.72;100.00;52991.53;4997159;28;20355;-69
2022/09/28 05:13:29;;;;;;;0.65;0.40;;;;;;;-140.72;100.00;53048.34;5004435;28;20034;-70
2022/09/28 05:15:56;;;;;;;1.23;0.80;;;;;;;-140.72;100.00;53024.00;5022211;28;20474;-72
2022/09/28 05:18:22;;;;;;;1.17;0.73;;;;;;;-140.72;100.00;53003.69;5014651;28;20635;-70
2022/09/28 05:20:47;;;;;;;1.35;0.70;;;;;;;-140.72;100.00;53024.00;5026535;28;20030;-70
2022/09/28 05:23:14;;;;;;;2.30;0.68;;;;;;;-140.72;100.00;53036.16;4994924;28;20082;-71
2022/09/28 05:25:40;;;;;;;0.80;0.43;;;;;;;-140.72;100.00;52999.66;5011962;28;20045;-70
2022/09/28 05:28:06;;;;;;;0.60;0.40;;;;;;;-140.72;100.00;53032.13;4993516;28;20084;-70
2022/09/28 05:30:32;;;;;;;1.33;0.40;;;;;;;-140.72;100.00;52997.63;4991714;28;20025;-70
2022/09/28 05:32:58;;;;;;;1.45;0.60;;;;;;;-140.72;100.00;53021.97;5009525;28;20089;-71
2022/09/28 05:35:23;;;;;;;1.98;0.25;;;;;;;-140.72;100.00;53019.94;4987399;28;20018;-71
2022/09/28 05:37:48;;;;;;;0.90;0.70;;;;;;;-140.72;100.00;53015.88;5004420;28;20049;-71
2022/09/28 05:40:14;;;;;;;1.45;1.02;;;;;;;-140.72;100.00;52999.66;4993952;28;20034;-71
2022/09/28 05:42:41;;;;;;;4.65;0.98;;;;;;;-140.72;100.00;53021.97;5022727;28;20076;-71
2022/09/28 05:45:07;;;;;;;1.55;0.80;;;;;;;-140.72;100.00;53021.97;5015038;28;20036;-70
2022/09/28 05:47:41;;;;;;;2.45;1.02;;;;;;;-140.72;100.00;53011.81;5028457;28;20057;-71
2022/09/28 05:50:08;;;;;;;2.03;0.60;;;;;;;-140.72;100.00;53036.16;5001783;28;20087;-71
2022/09/28 05:52:34;;;;;;;1.42;0.80;;;;;;;-140.72;100.00;53007.75;4998236;28;20105;-71
2022/09/28 05:55:00;;;;;;;1.95;1.10;;;;;;;-140.72;100.00;53007.75;5004565;28;20065;-72
2022/09/28 05:57:25;;;;;;;2.15;1.00;;;;;;;-140.72;100.00;53040.22;4983347;28;20048;-70
2022/09/28 05:59:50;;;;;;;2.85;0.88;;;;;;;-140.72;100.00;53024.00;5004610;28;20038;-72
2022/09/28 06:02:16;;;;;;;3.05;0.80;;;;;;;-140.72;100.00;53009.78;5023074;28;20022;-71
2022/09/28 06:04:41;;;;;;;2.15;0.73;;;;;;;-140.72;100.00;52983.41;5004359;28;20041;-71
2022/09/28 06:07:06;;;;;;;1.05;0.52;;;;;;;-140.72;100.00;53007.75;5002568;28;20136;-70
2022/09/28 06:09:32;;;;;;;1.65;0.80;;;;;;;-140.72;100.00;53028.06;5027289;28;20413;-71
2022/09/28 06:11:58;;;;;;;3.85;0.90;;;;;;;-140.72;100.00;53026.03;5012482;28;20038;-71
2022/09/28 06:14:24;;;;;;;0.85;0.65;;;;;;;-140.72;100.00;52977.31;5027733;28;20036;-71
2022/09/28 06:16:50;;;;;;;2.28;1.02;;;;;;;-140.72;100.00;53011.81;4995590;28;20064;-73
2022/09/28 06:19:31;;;;;;;1.50;0.73;;;;;;;-140.72;100.00;52983.41;4995919;28;20161;-71
2022/09/28 06:21:58;;;;;;;1.23;0.75;;;;;;;-140.72;100.00;52995.59;5003781;28;20022;-70
2022/09/28 06:31:22;;;;;;;8.40;1.42;;;;;;;-140.72;100.00;53032.13;5006764;28;20121;-70
2022/09/28 06:33:48;;;;;;;1.48;1.05;;;;;;;-140.72;100.00;52987.47;5007365;28;20088;-70
2022/09/28 06:36:15;;;;;;;4.88;1.35;;;;;;;-140.72;100.00;53030.09;4994688;28;20026;-72
2022/09/28 06:38:41;;;;;;;1.83;1.05;;;;;;;-140.72;100.00;52997.63;5010240;28;20030;-71
2022/09/28 06:41:06;;;;;;;1.80;0.88;;;;;;;-140.72;100.00;53036.16;5029092;28;20353;-70
2022/09/28 06:43:33;;;;;;;2.22;1.20;;;;;;;-140.72;100.00;52995.59;4977075;28;20034;-70
2022/09/28 06:46:10;;;;;;;4.32;1.25;;;;;;;-140.72;100.00;52993.56;4982007;28;20031;-70
2022/09/28 06:48:36;;;;;;;1.73;1.00;;;;;;;-140.72;100.00;52936.72;5006425;28;20363;-70
2022/09/28 06:54:24;;;;;;;1.10;0.77;;;;;;;-140.72;100.00;52946.88;5002716;28;20044;-70
2022/09/28 06:56:53;;;;;;;0.70;0.60;;;;;;;-140.72;100.00;53013.84;4989226;28;20037;-70
2022/09/28 06:59:19;;;;;;;3.58;1.00;;;;;;;-140.72;100.00;52961.09;4999659;28;20030;-71
2022/09/28 07:01:45;;;;;;;1.08;0.70;;;;;;;-140.72;100.00;52979.34;4991229;28;20029;-74
2022/09/28 07:04:21;;;;;;;1.55;0.90;;;;;;;-140.72;100.00;52979.34;4998584;28;20103;-73
2022/09/28 07:06:47;;;;;;;5.63;0.98;;;;;;;-140.72;100.00;52961.09;5013703;28;20049;-73
2022/09/28 07:09:12;;;;;;;1.52;0.80;;;;;;;-140.72;100.00;53005.72;5014130;28;20038;-72
2022/09/28 07:11:38;;;;;;;1.25;0.52;;;;;;;-140.72;100.00;52938.75;5012164;28;20113;-70
2022/09/28 07:14:04;;;;;;;3.15;1.42;;;;;;;-140.72;100.00;52969.19;4997768;28;20022;-71
2022/09/28 07:16:30;;;;;;;2.85;0.80;;;;;;;-140.72;100.00;52948.91;4985462;28;20179;-71
2022/09/28 07:18:55;;;;;;;5.28;1.25;;;;;;;-140.72;100.00;52946.88;4980805;28;20038;-71
2022/09/28 07:21:20;;;;;;;3.33;1.08;;;;;;;-140.72;100.00;52952.97;4993954;28;20462;-71
2022/09/28 07:23:47;;;;;;;3.80;1.52;;;;;;;-140.72;100.00;52914.41;4987652;28;20485;-71
2022/09/28 07:26:13;;;;;;;3.22;1.45;;;;;;;-140.72;100.00;52942.81;4994387;28;20389;-72
2022/09/28 07:28:40;;;;;;;2.83;0.80;;;;;;;-140.72;100.00;52946.88;4986958;28;20120;-71
2022/09/28 07:31:06;;;;;;;1.52;1.08;;;;;;;-140.72;100.00;52942.81;4993437;28;20029;-71
2022/09/28 07:33:32;;;;;;;1.50;0.95;;;;;;;-140.72;100.00;52936.72;4993644;28;20050;-73
2022/09/28 07:35:59;;;;;;;1.80;0.93;;;;;;;-140.72;100.00;52983.41;5003451;28;20027;-71
2022/09/28 07:38:51;;;;;;;2.22;1.17;;;;;;;-140.72;100.00;52963.13;4995299;28;20385;-71
2022/09/28 07:41:21;;;;;;;1.88;1.10;;;;;;;-140.72;100.00;52946.88;4989942;28;20023;-71
2022/09/28 07:47:08;;;;;;;3.22;1.38;;;;;;;-140.72;100.00;52963.13;5005181;28;20681;-71
2022/09/28 07:49:34;;;;;;;1.25;0.77;;;;;;;-140.72;100.00;52934.69;4993370;28;20031;-71
2022/09/28 07:51:59;;;;;;;2.25;1.42;;;;;;;-140.72;100.00;52952.97;5023640;28;20026;-71
2022/09/28 07:54:24;;;;;;;2.40;1.17;;;;;;;-140.72;100.00;52926.59;5012772;28;20065;-71
2022/09/28 07:56:50;;;;;;;3.35;1.23;;;;;;;-140.72;100.00;52930.66;5009472;28;20037;-71
2022/09/28 07:59:16;;;;;;;1.48;0.73;;;;;;;-140.72;100.00;52965.16;4977089;28;20113;-70
2022/09/28 08:01:41;;;;;;;3.03;1.15;;;;;;;-140.72;100.00;52906.28;5012841;28;20028;-70
2022/09/28 08:04:07;;;;;;;2.70;0.77;;;;;;;-140.72;100.00;52918.47;4991840;28;20043;-70
2022/09/28 08:06:32;;;;;;;3.53;0.85;;;;;;;-140.72;100.00;52936.72;5023746;28;20035;-70
2022/09/28 08:08:58;;;;;;;2.05;0.90;;;;;;;-140.72;100.00;52944.84;5015597;28;20129;-70
2022/09/28 08:11:24;;;;;;;3.20;0.90;;;;;;;-140.72;100.00;52934.69;4980015;28;20112;-71
2022/09/28 08:13:54;;;;;;;2.63;0.80;;;;;;;-140.72;100.00;52959.06;4976195;28;20533;-70
2022/09/28 08:16:19;;;;;;;1.17;0.43;;;;;;;-140.72;100.00;52918.47;4987462;28;20026;-68
2022/09/28 08:18:47;;;;;;;0.85;0.50;;;;;;;-140.72;100.00;52906.28;4974694;28;20451;-69
2022/09/28 08:23:57;;;;;;;0.95;0.38;;;;;;;-140.72;100.00;52926.59;4982595;28;20134;-71
2022/09/28 08:26:22;;;;;;;2.95;0.70;;;;;;;-140.72;100.00;52920.50;5014307;28;20125;-70
2022/09/28 08:28:47;;;;;;;6.22;0.95;;;;;;;-140.72;100.00;52892.09;4987661;28;20073;-70
2022/09/28 08:31:13;;;;;;;2.13;0.60;;;;;;;-140.72;100.00;52920.50;4987950;28;20029;-70
2022/09/28 08:33:40;;;;;;;3.83;0.85;;;;;;;-140.72;100.00;52914.41;5020765;28;20051;-70
2022/09/28 08:36:05;;;;;;;0.93;0.60;;;;;;;-140.72;100.00;52910.34;4982121;28;20050;-71
2022/09/28 08:38:31;;;;;;;1.75;0.80;;;;;;;-140.72;100.00;52883.97;4988065;28;20125;-70
2022/09/28 08:41:06;;;;;;;1.95;0.80;;;;;;;-140.72;100.00;52916.44;4993158;28;20026;-69
2022/09/28 08:43:38;;;;;;;1.80;0.98;;;;;;;-140.72;100.00;52930.66;4990894;28;20359;-69
2022/09/28 08:46:05;;;;;;;1.25;0.63;;;;;;;-140.72;100.00;52920.50;4996985;28;20389;-70
2022/09/28 08:48:47;;;;;;;1.05;0.40;;;;;;;-140.72;100.00;52934.69;4997300;28;20026;-70
2022/09/28 08:51:26;;;;;;;0.85;0.57;;;;;;;-140.72;100.00;52906.28;5001296;28;20435;-71
2022/09/28 08:54:19;;;;;;;1.52;0.75;;;;;;;-140.72;100.00;52902.22;5009286;28;20129;-70
2022/09/28 08:57:06;;;;;;;1.58;0.30;;;;;;;-140.72;100.00;52877.88;4997320;28;20521;-72
2022/09/28 08:59:56;;;;;;;0.75;0.50;;;;;;;-140.72;100.00;52865.69;4999730;28;20073;-72
2022/09/28 09:02:21;;;;;;;;;;;;;;;-140.72;100.00;52863.66;4975851;28;20046;-72
2022/09/28 09:04:47;;;;;;;0.30;0.20;;;;;;;-140.72;100.00;52821.06;4989922;28;19975;-72
2022/09/28 09:07:47;;;;;;;1.00;0.43;;;;;;;-140.72;100.00;52784.53;4996284;28;20436;-70
2022/09/28 09:10:19;;;;;;;0.65;0.22;;;;;;;-140.72;100.00;52845.41;4996933;28;20045;-70
2022/09/28 09:13:04;;;;;;;0.73;0.28;;;;;;;-140.72;100.00;52869.75;5026417;28;20092;-70
2022/09/28 09:15:48;;;;;;;0.80;0.25;;;;;;;-140.72;100.00;52829.19;4993153;28;20102;-69
2022/09/28 09:18:34;;;;;;;1.00;0.20;;;;;;;-140.72;100.00;52890.06;4990961;28;20449;-70
2022/09/28 09:21:32;;;;;;;0.45;0.22;;;;;;;-140.72;100.00;52867.72;4996792;28;20397;-70
2022/09/28 09:24:26;;;;;;;0.03;0.03;;;;;;;-140.72;100.00;52865.69;5014148;28;20078;-70
2022/09/28 09:27:03;;;;;;;0.65;0.20;;;;;;;-140.72;100.00;52898.16;4991593;28;20030;-70
2022/09/28 09:30:23;;;;;;;1.15;0.40;;;;;;;-140.72;100.00;52894.13;4992858;28;20070;-69
2022/09/28 09:33:29;;;;;;;0.95;0.60;;;;;;;-140.72;100.00;52932.66;4991013;28;20125;-69
2022/09/28 09:36:23;;;;;;;0.30;0.20;;;;;;;-140.72;100.00;52930.66;5005644;28;20064;-70
2022/09/28 09:39:20;;;;;;;1.65;0.30;;;;;;;-140.72;100.00;52871.78;5023421;28;20038;-71
2022/09/28 09:42:04;;;;;;;0.20;0.20;;;;;;;-140.72;100.00;52904.25;4993202;28;20036;-71
2022/09/28 09:44:29;;;;;;;2.15;0.30;;;;;;;-140.72;100.00;52902.22;4993381;28;20038;-71
2022/09/28 09:47:19;;;;;;;3.28;0.22;;;;;;;-140.72;100.00;52890.06;5013732;28;20029;-72
2022/09/28 09:49:50;;;;;;;0.90;0.47;;;;;;;-140.72;100.00;52883.97;4994716;28;20060;-71
2022/09/28 09:52:27;;;;;;;0.30;0.20;;;;;;;-140.72;100.00;52906.28;4977813;28;20120;-72
2022/09/28 09:54:52;;;;;;;0.10;0.10;;;;;;;-140.72;100.00;52829.19;4989410;28;20038;-71
2022/09/28 09:57:38;;;;;;;0.63;0.20;;;;;;;-140.72;100.00;52865.69;5010993;28;20030;-70
2022/09/28 10:00:09;;;;;;;0.52;0.20;;;;;;;-140.72;100.00;52922.53;4995702;28;20029;-70
2022/09/28 10:02:35;;;;;;;0.10;0.10;;;;;;;-140.72;100.00;52865.69;4996015;28;20026;-72
2022/09/28 10:05:09;;;;;;;0.35;0.17;;;;;;;-140.72;100.00;52873.81;4993507;28;20510;-70
2022/09/28 10:07:46;;;;;;;0.68;0.50;;;;;;;-140.72;100.00;52906.28;4985242;28;20030;-70
2022/09/28 10:10:20;;;;;;;0.47;0.13;;;;;;;-140.72;100.00;52827.16;4992713;28;20064;-70
2022/09/28 10:12:48;;;;;;;0.20;0.10;;;;;;;-140.72;100.00;52869.75;4994279;28;20022;-70
2022/09/28 10:15:18;;;;;;;0.43;0.20;;;;;;;-140.72;100.00;52833.22;5020104;28;20068;-69
2022/09/28 10:17:44;;;;;;;0.93;0.20;;;;;;;-140.72;100.00;52831.19;5003367;28;20049;-70
2022/09/28 10:20:15;;;;;;;0.20;0.10;;;;;;;-140.72;100.00;52859.63;4995280;28;20075;-70
2022/09/28 10:22:42;;;;;;;0.10;0.10;;;;;;;-140.72;100.00;52841.34;4997024;28;20038;-70
2022/09/28 10:25:08;;;;;;;1.38;0.20;;;;;;;-140.72;100.00;52804.81;5033305;28;20030;-70
2022/09/28 10:27:38;;;;;;;1.25;0.40;;;;;;;-140.72;100.00;52827.16;4994395;28;20080;-70
2022/09/28 10:30:07;;;;;;;1.17;0.20;;;;;;;-140.72;100.00;52817.00;5012037;28;20128;-70
2022/09/28 10:32:36;;;;;;;0.65;0.30;;;;;;;-140.72;100.00;52800.75;4999689;28;20113;-70
2022/09/28 10:35:17;;;;;;;0.25;0.10;;;;;;;-140.72;100.00;52760.19;5017596;28;20111;-70
2022/09/28 10:38:14;;;;;;;1.10;0.20;;;;;;;-140.72;100.00;52768.28;5022238;28;20485;-70
2022/09/28 10:40:58;;;;;;;0.73;0.20;;;;;;;-140.72;100.00;52764.25;4984609;28;20033;-70
2022/09/28 10:43:33;;;;;;;0.98;0.47;;;;;;;-140.72;100.00;52786.56;4996038;28;20026;-70
2022/09/28 10:46:22;;;;;;;0.22;0.17;;;;;;;-140.72;100.00;52648.56;4984205;28;20022;-70
2022/09/28 10:48:52;;;;;;;0.30;0.10;;;;;;;-140.72;100.00;52648.56;5010926;28;20030;-70
2022/09/28 10:51:18;;;;;;;0.28;0.10;;;;;;;-140.72;100.00;52626.25;4995020;28;20111;-70
2022/09/28 10:54:01;;;;;;;0.30;0.10;;;;;;;-140.72;100.00;52654.66;4993398;28;20069;-70
2022/09/28 10:56:28;;;;;;;0.00;0.00;;;;;;;-140.72;100.00;52660.75;4995171;28;20470;-73
2022/09/28 10:58:54;;;;;;;0.20;0.08;;;;;;;-140.72;100.00;52636.38;4995331;28;20105;-72
2022/09/28 11:01:25;;;;;;;0.20;0.20;;;;;;;-140.72;100.00;52524.78;4993996;28;20050;-72
2022/09/28 11:03:55;;;;;;;0.00;0.00;;;;;;;-140.72;0.00;52539.00;5011134;28;20069;-71
2022/09/28 11:06:27;;;;;;;2.25;0.20;;;;;;;-140.72;0.00;52486.22;4994247;28;20140;-73
2022/09/28 11:08:56;;;;;;;0.17;0.10;;;;;;;-140.72;0.00;52467.97;5012499;28;20034;-71
2022/09/28 11:11:23;;;;;;;0.07;0.03;;;;;;;-140.72;0.00;52451.72;5005507;28;20037;-71
2022/09/28 11:13:54;;;;;;;0.90;0.17;;;;;;;-140.72;0.00;52419.28;5024725;28;20144;-70
2022/09/28 11:16:27;;;;;;;0.15;0.00;;;;;;;-140.72;0.00;52455.78;5008532;28;20034;-71
2022/09/28 11:18:53;;;;;;;0.57;0.10;;;;;;;-140.72;0.00;52427.38;5005920;28;20394;-70
2022/09/28 11:21:27;;;;;;;6.38;0.30;;;;;;;-140.72;0.00;52449.72;5025549;28;20022;-71
2022/09/28 11:24:05;;;;;;;3.40;0.20;;;;;;;-140.72;0.00;52421.28;4994716;28;20457;-69
2022/09/28 11:26:37;;;;;;;1.20;0.22;;;;;;;-140.72;0.00;52417.25;5002307;28;20029;-70
2022/09/28 11:29:04;;;;;;;0.00;0.00;;;;;;;-140.72;0.00;52561.31;4994308;28;20029;-69
2022/09/28 11:31:30;;;;;;;0.73;0.10;;;;;;;-140.72;0.00;52518.69;5011818;28;20442;-71
2022/09/28 11:34:14;;;;;;;0.17;0.00;;;;;;;-140.72;0.00;52429.41;5011370;28;20045;-69
2022/09/28 11:36:55;;;;;;;0.00;0.00;;;;;;;-140.72;0.00;52366.50;5012262;28;20022;-69
2022/09/28 11:39:23;;;;;;;0.25;0.10;;;;;;;-140.72;0.00;52380.72;5026607;28;20040;-69
2022/09/28 11:41:57;;;;;;;0.25;0.10;;;;;;;-140.72;0.00;52403.03;4995925;28;20040;-69
2022/09/28 11:44:45;;;;;;;0.08;0.00;;;;;;;-140.72;0.00;52403.03;5007013;28;20030;-71
2022/09/28 11:47:31;;;;;;;0.10;0.00;;;;;;;-140.72;0.00;52323.91;5001056;28;20037;-70
2022/09/28 11:50:03;;;;;;;0.00;0.00;;;;;;;-140.72;0.00;52376.66;5019890;28;20061;-70
2022/09/28 11:52:35;;;;;;;0.43;0.05;;;;;;;-140.72;0.00;52534.94;5008301;28;20029;-72